sensor_id;sensor_type;location;lat;lon;timestamp;temperature;humidity
10419;DHT22;5256;48.728;9.140;2022-08-03T00:01:19;17.60;99.90
10419;DHT22;5256;48.728;9.140;2022-08-03T00:03:45;17.60;99.90
10419;DHT22;5256;48.728;9.140;2022-08-03T00:06:10;17.60;99.90
10419;DHT22;5256;48.728;9.140;2022-08-03T00:08:36;17.50;99.90
10419;DHT22;5256;48.728;9.140;2022-08-03T00:11:02;17.50;99.90
10419;DHT22;5256;48.728;9.140;2022-08-03T00:13:28;17.50;99.90
10419;DHT22;5256;48.728;9.140;2022-08-03T00:15:54;17.50;99.90
10419;DHT22;5256;48.728;9.140;2022-08-03T00:18:20;17.50;99.90
10419;DHT22;5256;48.728;9.140;2022-08-03T00:20:46;17.50;99.90
10419;DHT22;5256;48.728;9.140;2022-08-03T00:23:11;17.50;99.90
10419;DHT22;5256;48.728;9.140;2022-08-03T00:25:37;17.50;99.90
10419;DHT22;5256;48.728;9.140;2022-08-03T00:28:04;17.60;99.90
10419;DHT22;5256;48.728;9.140;2022-08-03T00:30:30;17.60;99.90
10419;DHT22;5256;48.728;9.140;2022-08-03T00:32:56;17.60;99.90
10419;DHT22;5256;48.728;9.140;2022-08-03T00:35:22;17.70;99.90
10419;DHT22;5256;48.728;9.140;2022-08-03T00:37:47;17.70;99.90
10419;DHT22;5256;48.728;9.140;2022-08-03T00:40:14;17.60;99.90
10419;DHT22;5256;48.728;9.140;2022-08-03T00:42:54;17.50;99.90
10419;DHT22;5256;48.728;9.140;2022-08-03T00:45:22;17.40;99.90
10419;DHT22;5256;48.728;9.140;2022-08-03T00:47:48;17.40;99.90
10419;DHT22;5256;48.728;9.140;2022-08-03T00:50:14;17.30;99.90
10419;DHT22;5256;48.728;9.140;2022-08-03T00:52:40;17.30;99.90
10419;DHT22;5256;48.728;9.140;2022-08-03T00:55:06;17.20;99.90
10419;DHT22;5256;48.728;9.140;2022-08-03T00:57:32;17.20;99.90
10419;DHT22;5256;48.728;9.140;2022-08-03T00:59:58;17.20;99.90
10419;DHT22;5256;48.728;9.140;2022-08-03T01:02:27;17.10;99.90
10419;DHT22;5256;48.728;9.140;2022-08-03T01:04:53;17.10;99.90
10419;DHT22;5256;48.728;9.140;2022-08-03T01:10:15;17.00;99.90
10419;DHT22;5256;48.728;9.140;2022-08-03T01:12:59;17.00;99.90
10419;DHT22;5256;48.728;9.140;2022-08-03T01:18:17;17.00;99.90
10419;DHT22;5256;48.728;9.140;2022-08-03T01:20:55;17.00;99.90
10419;DHT22;5256;48.728;9.140;2022-08-03T01:26:08;16.90;99.90
10419;DHT22;5256;48.728;9.140;2022-08-03T01:31:44;16.90;99.90
10419;DHT22;5256;48.728;9.140;2022-08-03T01:34:15;16.90;99.90
10419;DHT22;5256;48.728;9.140;2022-08-03T01:36:50;16.90;99.90
10419;DHT22;5256;48.728;9.140;2022-08-03T01:39:17;16.80;99.90
10419;DHT22;5256;48.728;9.140;2022-08-03T01:41:48;16.80;99.90
10419;DHT22;5256;48.728;9.140;2022-08-03T01:44:15;16.80;99.90
10419;DHT22;5256;48.728;9.140;2022-08-03T01:46:41;16.70;99.90
10419;DHT22;5256;48.728;9.140;2022-08-03T01:49:10;16.70;99.90
10419;DHT22;5256;48.728;9.140;2022-08-03T01:51:41;16.70;99.90
10419;DHT22;5256;48.728;9.140;2022-08-03T01:54:09;16.70;99.90
10419;DHT22;5256;48.728;9.140;2022-08-03T01:56:37;16.70;99.90
10419;DHT22;5256;48.728;9.140;2022-08-03T01:59:06;16.70;99.90
10419;DHT22;5256;48.728;9.140;2022-08-03T02:01:34;16.70;99.90
10419;DHT22;5256;48.728;9.140;2022-08-03T02:04:01;16.60;99.90
10419;DHT22;5256;48.728;9.140;2022-08-03T02:06:31;16.60;99.90
10419;DHT22;5256;48.728;9.140;2022-08-03T02:08:58;16.60;99.90
10419;DHT22;5256;48.728;9.140;2022-08-03T02:11:25;16.60;99.90
10419;DHT22;5256;48.728;9.140;2022-08-03T02:13:52;16.50;99.90
10419;DHT22;5256;48.728;9.140;2022-08-03T02:16:21;16.50;99.90
10419;DHT22;5256;48.728;9.140;2022-08-03T02:18:47;16.60;99.90
10419;DHT22;5256;48.728;9.140;2022-08-03T02:21:14;16.60;99.90
10419;DHT22;5256;48.728;9.140;2022-08-03T02:23:40;16.60;99.90
10419;DHT22;5256;48.728;9.140;2022-08-03T02:26:09;16.50;99.90
10419;DHT22;5256;48.728;9.140;2022-08-03T02:28:40;16.50;99.90
10419;DHT22;5256;48.728;9.140;2022-08-03T02:31:15;16.60;99.90
10419;DHT22;5256;48.728;9.140;2022-08-03T02:33:46;16.50;99.90
10419;DHT22;5256;48.728;9.140;2022-08-03T02:36:14;16.50;99.90
10419;DHT22;5256;48.728;9.140;2022-08-03T02:38:43;16.40;99.90
10419;DHT22;5256;48.728;9.140;2022-08-03T02:41:15;16.40;99.90
10419;DHT22;5256;48.728;9.140;2022-08-03T02:43:44;16.30;99.90
10419;DHT22;5256;48.728;9.140;2022-08-03T02:46:12;16.30;99.90
10419;DHT22;5256;48.728;9.140;2022-08-03T02:48:40;16.20;99.90
10419;DHT22;5256;48.728;9.140;2022-08-03T02:51:08;16.20;99.90
10419;DHT22;5256;48.728;9.140;2022-08-03T02:53:33;16.20;99.90
10419;DHT22;5256;48.728;9.140;2022-08-03T02:56:01;16.20;99.90
10419;DHT22;5256;48.728;9.140;2022-08-03T02:58:30;16.10;99.90
10419;DHT22;5256;48.728;9.140;2022-08-03T03:00:56;16.10;99.90
10419;DHT22;5256;48.728;9.140;2022-08-03T03:03:22;16.10;99.90
10419;DHT22;5256;48.728;9.140;2022-08-03T03:05:49;16.10;99.90
10419;DHT22;5256;48.728;9.140;2022-08-03T03:08:20;16.10;99.90
10419;DHT22;5256;48.728;9.140;2022-08-03T03:10:46;16.10;99.90
10419;DHT22;5256;48.728;9.140;2022-08-03T03:13:14;16.10;99.90
10419;DHT22;5256;48.728;9.140;2022-08-03T03:15:41;16.10;99.90
10419;DHT22;5256;48.728;9.140;2022-08-03T03:18:08;16.00;99.90
10419;DHT22;5256;48.728;9.140;2022-08-03T03:20:36;16.00;99.90
10419;DHT22;5256;48.728;9.140;2022-08-03T03:23:04;16.00;99.90
10419;DHT22;5256;48.728;9.140;2022-08-03T03:25:30;16.00;99.90
10419;DHT22;5256;48.728;9.140;2022-08-03T03:27:58;15.90;99.90
10419;DHT22;5256;48.728;9.140;2022-08-03T03:30:24;15.90;99.90
10419;DHT22;5256;48.728;9.140;2022-08-03T03:32:50;16.00;99.90
10419;DHT22;5256;48.728;9.140;2022-08-03T03:35:16;15.90;99.90
10419;DHT22;5256;48.728;9.140;2022-08-03T03:37:42;15.90;99.90
10419;DHT22;5256;48.728;9.140;2022-08-03T03:40:08;15.90;99.90
10419;DHT22;5256;48.728;9.140;2022-08-03T03:42:34;15.90;99.90
10419;DHT22;5256;48.728;9.140;2022-08-03T03:45:03;15.80;99.90
10419;DHT22;5256;48.728;9.140;2022-08-03T03:47:29;15.80;99.90
10419;DHT22;5256;48.728;9.140;2022-08-03T03:49:56;15.80;99.90
10419;DHT22;5256;48.728;9.140;2022-08-03T03:52:22;15.70;99.90
10419;DHT22;5256;48.728;9.140;2022-08-03T03:54:47;15.70;99.90
10419;DHT22;5256;48.728;9.140;2022-08-03T03:57:13;15.70;99.90
10419;DHT22;5256;48.728;9.140;2022-08-03T03:59:40;15.60;99.90
10419;DHT22;5256;48.728;9.140;2022-08-03T04:02:07;15.60;99.90
10419;DHT22;5256;48.728;9.140;2022-08-03T04:04:34;15.70;99.90
10419;DHT22;5256;48.728;9.140;2022-08-03T04:07:20;15.60;99.90
10419;DHT22;5256;48.728;9.140;2022-08-03T04:10:12;15.70;99.90
10419;DHT22;5256;48.728;9.140;2022-08-03T04:12:58;15.70;99.90
10419;DHT22;5256;48.728;9.140;2022-08-03T04:15:27;15.70;99.90
10419;DHT22;5256;48.728;9.140;2022-08-03T04:17:55;15.80;99.90
10419;DHT22;5256;48.728;9.140;2022-08-03T04:20:22;15.80;99.90
10419;DHT22;5256;48.728;9.140;2022-08-03T04:22:50;15.90;99.90
10419;DHT22;5256;48.728;9.140;2022-08-03T04:25:17;15.90;99.90
10419;DHT22;5256;48.728;9.140;2022-08-03T04:27:46;16.10;99.90
10419;DHT22;5256;48.728;9.140;2022-08-03T04:30:14;16.20;99.90
10419;DHT22;5256;48.728;9.140;2022-08-03T04:32:42;16.20;99.90
10419;DHT22;5256;48.728;9.140;2022-08-03T04:35:09;16.20;99.90
10419;DHT22;5256;48.728;9.140;2022-08-03T04:37:40;16.20;99.90
10419;DHT22;5256;48.728;9.140;2022-08-03T04:40:14;16.30;99.90
10419;DHT22;5256;48.728;9.140;2022-08-03T04:42:41;16.30;99.90
10419;DHT22;5256;48.728;9.140;2022-08-03T04:45:11;16.50;99.90
10419;DHT22;5256;48.728;9.140;2022-08-03T04:47:37;16.60;99.90
10419;DHT22;5256;48.728;9.140;2022-08-03T04:50:04;16.70;99.90
10419;DHT22;5256;48.728;9.140;2022-08-03T04:52:30;16.80;99.90
10419;DHT22;5256;48.728;9.140;2022-08-03T04:54:57;16.80;99.90
10419;DHT22;5256;48.728;9.140;2022-08-03T04:57:23;16.90;99.90
10419;DHT22;5256;48.728;9.140;2022-08-03T04:59:49;17.00;99.90
10419;DHT22;5256;48.728;9.140;2022-08-03T05:02:18;17.00;99.90
10419;DHT22;5256;48.728;9.140;2022-08-03T05:04:44;17.10;99.90
10419;DHT22;5256;48.728;9.140;2022-08-03T05:07:11;17.20;99.90
10419;DHT22;5256;48.728;9.140;2022-08-03T05:09:37;17.40;99.90
10419;DHT22;5256;48.728;9.140;2022-08-03T05:12:04;17.50;99.90
10419;DHT22;5256;48.728;9.140;2022-08-03T05:14:29;17.70;99.90
10419;DHT22;5256;48.728;9.140;2022-08-03T05:16:55;17.80;99.90
10419;DHT22;5256;48.728;9.140;2022-08-03T05:19:21;18.00;99.90
10419;DHT22;5256;48.728;9.140;2022-08-03T05:21:46;18.20;99.90
10419;DHT22;5256;48.728;9.140;2022-08-03T05:24:12;18.30;99.90
10419;DHT22;5256;48.728;9.140;2022-08-03T05:26:38;18.50;99.90
10419;DHT22;5256;48.728;9.140;2022-08-03T05:29:03;18.70;99.90
10419;DHT22;5256;48.728;9.140;2022-08-03T05:31:29;18.90;99.90
10419;DHT22;5256;48.728;9.140;2022-08-03T05:33:55;19.10;99.90
10419;DHT22;5256;48.728;9.140;2022-08-03T05:36:21;19.40;99.90
10419;DHT22;5256;48.728;9.140;2022-08-03T05:38:47;19.70;99.90
10419;DHT22;5256;48.728;9.140;2022-08-03T05:41:12;20.10;99.90
10419;DHT22;5256;48.728;9.140;2022-08-03T05:43:38;20.80;99.90
10419;DHT22;5256;48.728;9.140;2022-08-03T05:46:03;21.70;99.90
10419;DHT22;5256;48.728;9.140;2022-08-03T05:48:29;22.70;99.90
10419;DHT22;5256;48.728;9.140;2022-08-03T05:50:54;23.50;99.90
10419;DHT22;5256;48.728;9.140;2022-08-03T05:53:20;24.10;99.90
10419;DHT22;5256;48.728;9.140;2022-08-03T05:55:46;24.80;99.90
10419;DHT22;5256;48.728;9.140;2022-08-03T05:58:11;25.50;99.90
10419;DHT22;5256;48.728;9.140;2022-08-03T06:00:37;26.00;99.90
10419;DHT22;5256;48.728;9.140;2022-08-03T06:03:02;26.60;99.90
10419;DHT22;5256;48.728;9.140;2022-08-03T06:05:28;26.80;99.90
10419;DHT22;5256;48.728;9.140;2022-08-03T06:07:54;27.30;99.90
10419;DHT22;5256;48.728;9.140;2022-08-03T06:10:19;27.50;99.90
10419;DHT22;5256;48.728;9.140;2022-08-03T06:12:45;27.80;99.90
10419;DHT22;5256;48.728;9.140;2022-08-03T06:15:14;28.10;99.90
10419;DHT22;5256;48.728;9.140;2022-08-03T06:17:47;28.10;99.90
10419;DHT22;5256;48.728;9.140;2022-08-03T06:20:14;28.10;99.90
10419;DHT22;5256;48.728;9.140;2022-08-03T06:22:40;28.10;99.90
10419;DHT22;5256;48.728;9.140;2022-08-03T06:25:06;28.30;99.90
10419;DHT22;5256;48.728;9.140;2022-08-03T06:27:32;28.20;99.90
10419;DHT22;5256;48.728;9.140;2022-08-03T06:29:57;28.70;99.90
10419;DHT22;5256;48.728;9.140;2022-08-03T06:32:23;29.00;99.90
10419;DHT22;5256;48.728;9.140;2022-08-03T06:34:48;29.30;99.10
10419;DHT22;5256;48.728;9.140;2022-08-03T06:37:14;29.50;99.20
10419;DHT22;5256;48.728;9.140;2022-08-03T06:39:39;29.40;99.10
10419;DHT22;5256;48.728;9.140;2022-08-03T06:42:05;29.30;99.20
10419;DHT22;5256;48.728;9.140;2022-08-03T06:44:31;29.40;98.70
10419;DHT22;5256;48.728;9.140;2022-08-03T06:46:56;30.00;97.90
10419;DHT22;5256;48.728;9.140;2022-08-03T06:49:23;30.10;97.80
10419;DHT22;5256;48.728;9.140;2022-08-03T06:51:49;30.30;97.40
10419;DHT22;5256;48.728;9.140;2022-08-03T06:54:17;30.70;97.10
10419;DHT22;5256;48.728;9.140;2022-08-03T06:56:43;30.70;96.70
10419;DHT22;5256;48.728;9.140;2022-08-03T06:59:08;30.40;96.30
10419;DHT22;5256;48.728;9.140;2022-08-03T07:01:34;30.40;96.50
10419;DHT22;5256;48.728;9.140;2022-08-03T07:03:59;30.60;96.00
10419;DHT22;5256;48.728;9.140;2022-08-03T07:06:25;30.80;96.00
10419;DHT22;5256;48.728;9.140;2022-08-03T07:08:51;31.20;95.20
10419;DHT22;5256;48.728;9.140;2022-08-03T07:11:16;31.40;94.80
10419;DHT22;5256;48.728;9.140;2022-08-03T07:13:42;31.10;95.50
10419;DHT22;5256;48.728;9.140;2022-08-03T07:16:08;31.10;95.00
10419;DHT22;5256;48.728;9.140;2022-08-03T07:18:37;31.30;95.10
10419;DHT22;5256;48.728;9.140;2022-08-03T07:21:03;31.40;95.10
10419;DHT22;5256;48.728;9.140;2022-08-03T07:23:28;31.70;94.90
10419;DHT22;5256;48.728;9.140;2022-08-03T07:25:54;32.00;94.30
10419;DHT22;5256;48.728;9.140;2022-08-03T07:28:19;31.70;94.50
10419;DHT22;5256;48.728;9.140;2022-08-03T07:30:45;31.70;94.30
10419;DHT22;5256;48.728;9.140;2022-08-03T07:33:11;32.10;93.80
10419;DHT22;5256;48.728;9.140;2022-08-03T07:35:37;32.30;93.60
10419;DHT22;5256;48.728;9.140;2022-08-03T07:38:02;32.20;93.20
10419;DHT22;5256;48.728;9.140;2022-08-03T07:40:28;32.00;93.10
10419;DHT22;5256;48.728;9.140;2022-08-03T07:42:53;32.00;93.40
10419;DHT22;5256;48.728;9.140;2022-08-03T07:45:19;32.10;93.50
10419;DHT22;5256;48.728;9.140;2022-08-03T07:47:47;32.30;92.70
10419;DHT22;5256;48.728;9.140;2022-08-03T07:50:13;32.50;93.00
10419;DHT22;5256;48.728;9.140;2022-08-03T07:52:38;32.80;92.40
10419;DHT22;5256;48.728;9.140;2022-08-03T07:55:14;32.80;92.20
10419;DHT22;5256;48.728;9.140;2022-08-03T07:57:40;32.90;91.80
10419;DHT22;5256;48.728;9.140;2022-08-03T08:00:15;32.50;91.80
10419;DHT22;5256;48.728;9.140;2022-08-03T08:02:42;33.20;91.60
10419;DHT22;5256;48.728;9.140;2022-08-03T08:05:08;32.90;91.30
10419;DHT22;5256;48.728;9.140;2022-08-03T08:07:35;33.00;90.10
10419;DHT22;5256;48.728;9.140;2022-08-03T08:10:01;33.30;89.00
10419;DHT22;5256;48.728;9.140;2022-08-03T08:12:27;33.40;88.40
10419;DHT22;5256;48.728;9.140;2022-08-03T08:14:52;33.90;86.40
10419;DHT22;5256;48.728;9.140;2022-08-03T08:17:18;34.10;85.60
10419;DHT22;5256;48.728;9.140;2022-08-03T08:19:44;33.70;87.60
10419;DHT22;5256;48.728;9.140;2022-08-03T08:22:09;33.10;86.50
10419;DHT22;5256;48.728;9.140;2022-08-03T08:24:35;32.70;88.90
10419;DHT22;5256;48.728;9.140;2022-08-03T08:27:00;33.10;87.40
10419;DHT22;5256;48.728;9.140;2022-08-03T08:29:26;33.70;87.00
10419;DHT22;5256;48.728;9.140;2022-08-03T08:31:52;34.00;86.80
10419;DHT22;5256;48.728;9.140;2022-08-03T08:34:17;34.40;85.80
10419;DHT22;5256;48.728;9.140;2022-08-03T08:36:43;34.30;86.00
10419;DHT22;5256;48.728;9.140;2022-08-03T08:39:08;34.30;85.30
10419;DHT22;5256;48.728;9.140;2022-08-03T08:41:34;34.80;84.40
10419;DHT22;5256;48.728;9.140;2022-08-03T08:44:00;35.00;84.30
10419;DHT22;5256;48.728;9.140;2022-08-03T08:46:26;35.10;82.50
10419;DHT22;5256;48.728;9.140;2022-08-03T08:48:55;34.90;83.30
10419;DHT22;5256;48.728;9.140;2022-08-03T08:51:21;35.00;82.80
10419;DHT22;5256;48.728;9.140;2022-08-03T08:53:52;34.90;81.90
10419;DHT22;5256;48.728;9.140;2022-08-03T08:56:19;34.70;82.50
10419;DHT22;5256;48.728;9.140;2022-08-03T08:58:51;34.70;81.80
10419;DHT22;5256;48.728;9.140;2022-08-03T09:01:18;34.70;82.10
10419;DHT22;5256;48.728;9.140;2022-08-03T09:03:45;34.90;80.60
10419;DHT22;5256;48.728;9.140;2022-08-03T09:06:11;35.20;79.10
10419;DHT22;5256;48.728;9.140;2022-08-03T09:08:37;35.00;79.30
10419;DHT22;5256;48.728;9.140;2022-08-03T09:11:03;35.00;79.80
10419;DHT22;5256;48.728;9.140;2022-08-03T09:13:29;35.20;77.50
10419;DHT22;5256;48.728;9.140;2022-08-03T09:16:17;35.40;77.30
10419;DHT22;5256;48.728;9.140;2022-08-03T09:18:46;35.30;77.00
10419;DHT22;5256;48.728;9.140;2022-08-03T09:21:17;35.20;76.80
10419;DHT22;5256;48.728;9.140;2022-08-03T09:23:47;35.30;76.80
10419;DHT22;5256;48.728;9.140;2022-08-03T09:26:25;35.90;77.60
10419;DHT22;5256;48.728;9.140;2022-08-03T09:31:30;36.40;75.20
10419;DHT22;5256;48.728;9.140;2022-08-03T09:33:57;36.50;73.60
10419;DHT22;5256;48.728;9.140;2022-08-03T09:39:11;36.00;72.30
10419;DHT22;5256;48.728;9.140;2022-08-03T09:41:38;36.10;71.40
10419;DHT22;5256;48.728;9.140;2022-08-03T09:44:04;36.00;71.30
10419;DHT22;5256;48.728;9.140;2022-08-03T09:46:30;36.30;72.50
10419;DHT22;5256;48.728;9.140;2022-08-03T09:49:10;36.60;71.10
10419;DHT22;5256;48.728;9.140;2022-08-03T09:51:36;36.20;70.70
10419;DHT22;5256;48.728;9.140;2022-08-03T09:54:02;36.20;73.60
10419;DHT22;5256;48.728;9.140;2022-08-03T09:56:42;36.00;73.90
10419;DHT22;5256;48.728;9.140;2022-08-03T09:59:15;36.00;72.00
10419;DHT22;5256;48.728;9.140;2022-08-03T10:01:47;36.20;71.90
10419;DHT22;5256;48.728;9.140;2022-08-03T10:04:14;36.40;70.30
10419;DHT22;5256;48.728;9.140;2022-08-03T10:06:43;36.30;68.50
10419;DHT22;5256;48.728;9.140;2022-08-03T10:09:14;36.80;67.30
10419;DHT22;5256;48.728;9.140;2022-08-03T10:11:42;36.90;68.00
10419;DHT22;5256;48.728;9.140;2022-08-03T10:14:10;37.10;65.90
10419;DHT22;5256;48.728;9.140;2022-08-03T10:16:43;36.30;66.90
10419;DHT22;5256;48.728;9.140;2022-08-03T10:19:08;36.60;67.00
10419;DHT22;5256;48.728;9.140;2022-08-03T10:21:37;36.00;67.10
10419;DHT22;5256;48.728;9.140;2022-08-03T10:24:04;36.10;66.80
10419;DHT22;5256;48.728;9.140;2022-08-03T10:26:34;36.10;67.50
10419;DHT22;5256;48.728;9.140;2022-08-03T10:29:03;36.50;67.60
10419;DHT22;5256;48.728;9.140;2022-08-03T10:31:37;36.40;67.70
10419;DHT22;5256;48.728;9.140;2022-08-03T10:34:07;36.20;67.00
10419;DHT22;5256;48.728;9.140;2022-08-03T10:36:36;36.10;67.50
10419;DHT22;5256;48.728;9.140;2022-08-03T10:39:03;35.90;68.10
10419;DHT22;5256;48.728;9.140;2022-08-03T10:41:37;35.90;68.00
10419;DHT22;5256;48.728;9.140;2022-08-03T10:44:17;35.70;68.10
10419;DHT22;5256;48.728;9.140;2022-08-03T10:46:43;36.10;67.90
10419;DHT22;5256;48.728;9.140;2022-08-03T10:49:12;36.20;67.00
10419;DHT22;5256;48.728;9.140;2022-08-03T10:51:38;35.80;67.20
10419;DHT22;5256;48.728;9.140;2022-08-03T10:54:04;34.90;68.60
10419;DHT22;5256;48.728;9.140;2022-08-03T10:59:55;34.90;68.30
10419;DHT22;5256;48.728;9.140;2022-08-03T11:02:21;34.20;70.20
10419;DHT22;5256;48.728;9.140;2022-08-03T11:04:46;34.30;69.80
10419;DHT22;5256;48.728;9.140;2022-08-03T11:07:32;34.00;69.40
10419;DHT22;5256;48.728;9.140;2022-08-03T11:09:57;33.80;69.60
10419;DHT22;5256;48.728;9.140;2022-08-03T11:12:25;33.90;70.50
10419;DHT22;5256;48.728;9.140;2022-08-03T11:14:52;33.40;70.60
10419;DHT22;5256;48.728;9.140;2022-08-03T11:17:18;33.60;71.30
10419;DHT22;5256;48.728;9.140;2022-08-03T11:19:53;33.30;71.00
10419;DHT22;5256;48.728;9.140;2022-08-03T11:22:19;33.10;71.90
10419;DHT22;5256;48.728;9.140;2022-08-03T11:27:21;32.90;72.30
10419;DHT22;5256;48.728;9.140;2022-08-03T11:30:05;33.10;72.40
10419;DHT22;5256;48.728;9.140;2022-08-03T11:46:04;32.00;75.50
10419;DHT22;5256;48.728;9.140;2022-08-03T11:48:41;32.00;76.10
10419;DHT22;5256;48.728;9.140;2022-08-03T11:51:29;32.10;75.90
10419;DHT22;5256;48.728;9.140;2022-08-03T11:54:01;31.70;75.20
10419;DHT22;5256;48.728;9.140;2022-08-03T11:56:35;31.60;76.50
10419;DHT22;5256;48.728;9.140;2022-08-03T11:59:07;31.60;76.30
10419;DHT22;5256;48.728;9.140;2022-08-03T12:01:33;31.60;75.50
10419;DHT22;5256;48.728;9.140;2022-08-03T12:04:02;31.60;76.20
10419;DHT22;5256;48.728;9.140;2022-08-03T12:06:28;31.80;75.80
10419;DHT22;5256;48.728;9.140;2022-08-03T12:08:54;31.70;75.80
10419;DHT22;5256;48.728;9.140;2022-08-03T12:11:20;31.90;76.20
10419;DHT22;5256;48.728;9.140;2022-08-03T12:13:47;32.00;76.20
10419;DHT22;5256;48.728;9.140;2022-08-03T12:16:21;31.90;75.20
10419;DHT22;5256;48.728;9.140;2022-08-03T12:18:58;31.90;74.40
10419;DHT22;5256;48.728;9.140;2022-08-03T12:21:24;31.70;75.50
10419;DHT22;5256;48.728;9.140;2022-08-03T12:23:54;31.50;75.70
10419;DHT22;5256;48.728;9.140;2022-08-03T12:26:20;31.40;76.20
10419;DHT22;5256;48.728;9.140;2022-08-03T12:28:47;31.50;76.50
10419;DHT22;5256;48.728;9.140;2022-08-03T12:31:13;31.50;75.00
10419;DHT22;5256;48.728;9.140;2022-08-03T12:36:21;31.40;75.60
10419;DHT22;5256;48.728;9.140;2022-08-03T12:38:55;31.40;75.90
10419;DHT22;5256;48.728;9.140;2022-08-03T12:41:27;31.40;76.20
10419;DHT22;5256;48.728;9.140;2022-08-03T12:43:53;31.40;75.40
10419;DHT22;5256;48.728;9.140;2022-08-03T12:46:19;31.50;75.30
10419;DHT22;5256;48.728;9.140;2022-08-03T12:49:18;31.40;75.30
10419;DHT22;5256;48.728;9.140;2022-08-03T12:54:24;31.60;75.70
10419;DHT22;5256;48.728;9.140;2022-08-03T12:57:06;31.80;76.30
10419;DHT22;5256;48.728;9.140;2022-08-03T12:59:40;32.00;75.60
10419;DHT22;5256;48.728;9.140;2022-08-03T13:02:18;32.20;76.30
10419;DHT22;5256;48.728;9.140;2022-08-03T13:04:45;32.30;74.00
10419;DHT22;5256;48.728;9.140;2022-08-03T13:07:12;32.50;74.80
10419;DHT22;5256;48.728;9.140;2022-08-03T13:09:46;32.40;75.20
10419;DHT22;5256;48.728;9.140;2022-08-03T13:12:14;32.50;74.50
10419;DHT22;5256;48.728;9.140;2022-08-03T13:14:41;32.30;74.00
10419;DHT22;5256;48.728;9.140;2022-08-03T13:17:08;32.30;75.10
10419;DHT22;5256;48.728;9.140;2022-08-03T13:19:38;32.40;74.40
10419;DHT22;5256;48.728;9.140;2022-08-03T13:22:15;32.10;74.70
10419;DHT22;5256;48.728;9.140;2022-08-03T13:24:41;32.40;74.70
10419;DHT22;5256;48.728;9.140;2022-08-03T13:27:07;32.00;74.50
10419;DHT22;5256;48.728;9.140;2022-08-03T13:29:34;32.20;75.20
10419;DHT22;5256;48.728;9.140;2022-08-03T13:32:00;32.30;75.50
10419;DHT22;5256;48.728;9.140;2022-08-03T13:34:26;32.30;74.20
10419;DHT22;5256;48.728;9.140;2022-08-03T13:36:52;32.60;75.10
10419;DHT22;5256;48.728;9.140;2022-08-03T13:39:18;32.80;72.70
10419;DHT22;5256;48.728;9.140;2022-08-03T13:41:47;32.90;74.60
10419;DHT22;5256;48.728;9.140;2022-08-03T13:44:13;32.60;71.50
10419;DHT22;5256;48.728;9.140;2022-08-03T13:46:38;32.70;71.90
10419;DHT22;5256;48.728;9.140;2022-08-03T13:49:05;32.50;72.90
10419;DHT22;5256;48.728;9.140;2022-08-03T13:51:30;32.30;75.00
10419;DHT22;5256;48.728;9.140;2022-08-03T13:53:56;32.80;73.80
10419;DHT22;5256;48.728;9.140;2022-08-03T13:56:24;33.10;72.60
10419;DHT22;5256;48.728;9.140;2022-08-03T13:58:50;33.30;72.80
10419;DHT22;5256;48.728;9.140;2022-08-03T14:01:15;33.30;71.90
10419;DHT22;5256;48.728;9.140;2022-08-03T14:03:41;33.30;72.20
10419;DHT22;5256;48.728;9.140;2022-08-03T14:06:07;33.60;71.70
10419;DHT22;5256;48.728;9.140;2022-08-03T14:08:33;33.90;71.40
10419;DHT22;5256;48.728;9.140;2022-08-03T14:10:58;34.30;71.40
10419;DHT22;5256;48.728;9.140;2022-08-03T14:13:24;34.60;71.50
10419;DHT22;5256;48.728;9.140;2022-08-03T14:15:49;35.00;69.00
10419;DHT22;5256;48.728;9.140;2022-08-03T14:18:16;35.20;68.50
10419;DHT22;5256;48.728;9.140;2022-08-03T14:20:43;35.60;69.60
10419;DHT22;5256;48.728;9.140;2022-08-03T14:23:09;35.90;69.00
10419;DHT22;5256;48.728;9.140;2022-08-03T14:25:34;35.90;67.50
10419;DHT22;5256;48.728;9.140;2022-08-03T14:28:00;36.40;67.30
10419;DHT22;5256;48.728;9.140;2022-08-03T14:30:26;36.40;66.70
10419;DHT22;5256;48.728;9.140;2022-08-03T14:32:51;36.80;66.90
10419;DHT22;5256;48.728;9.140;2022-08-03T14:35:17;37.10;65.60
10419;DHT22;5256;48.728;9.140;2022-08-03T14:37:42;37.20;65.10
10419;DHT22;5256;48.728;9.140;2022-08-03T14:40:08;37.50;64.40
10419;DHT22;5256;48.728;9.140;2022-08-03T14:42:34;37.40;65.50
10419;DHT22;5256;48.728;9.140;2022-08-03T14:44:59;37.60;65.60
10419;DHT22;5256;48.728;9.140;2022-08-03T14:47:25;37.70;65.50
10419;DHT22;5256;48.728;9.140;2022-08-03T14:49:50;38.10;64.50
10419;DHT22;5256;48.728;9.140;2022-08-03T14:52:16;38.50;63.20
10419;DHT22;5256;48.728;9.140;2022-08-03T14:54:42;37.60;63.80
10419;DHT22;5256;48.728;9.140;2022-08-03T14:57:07;37.20;64.30
10419;DHT22;5256;48.728;9.140;2022-08-03T14:59:33;38.00;62.80
10419;DHT22;5256;48.728;9.140;2022-08-03T15:01:58;38.50;62.80
10419;DHT22;5256;48.728;9.140;2022-08-03T15:04:24;39.00;63.80
10419;DHT22;5256;48.728;9.140;2022-08-03T15:06:49;39.70;61.80
10419;DHT22;5256;48.728;9.140;2022-08-03T15:09:15;39.60;60.40
10419;DHT22;5256;48.728;9.140;2022-08-03T15:11:41;38.30;61.30
10419;DHT22;5256;48.728;9.140;2022-08-03T15:14:07;38.70;61.80
10419;DHT22;5256;48.728;9.140;2022-08-03T15:16:32;39.30;61.20
10419;DHT22;5256;48.728;9.140;2022-08-03T15:18:58;39.30;59.70
10419;DHT22;5256;48.728;9.140;2022-08-03T15:21:25;39.30;59.80
10419;DHT22;5256;48.728;9.140;2022-08-03T15:23:51;39.70;59.70
10419;DHT22;5256;48.728;9.140;2022-08-03T15:26:17;39.60;59.60
10419;DHT22;5256;48.728;9.140;2022-08-03T15:28:42;38.90;59.90
10419;DHT22;5256;48.728;9.140;2022-08-03T15:31:08;38.70;59.80
10419;DHT22;5256;48.728;9.140;2022-08-03T15:33:33;39.10;60.00
10419;DHT22;5256;48.728;9.140;2022-08-03T15:35:59;39.40;59.20
10419;DHT22;5256;48.728;9.140;2022-08-03T15:38:24;39.10;58.50
10419;DHT22;5256;48.728;9.140;2022-08-03T15:40:50;38.00;58.50
10419;DHT22;5256;48.728;9.140;2022-08-03T15:43:19;37.60;59.30
10419;DHT22;5256;48.728;9.140;2022-08-03T15:45:45;38.20;59.40
10419;DHT22;5256;48.728;9.140;2022-08-03T15:48:11;38.90;59.40
10419;DHT22;5256;48.728;9.140;2022-08-03T15:50:37;39.10;58.90
10419;DHT22;5256;48.728;9.140;2022-08-03T15:53:03;39.30;58.10
10419;DHT22;5256;48.728;9.140;2022-08-03T15:55:28;39.50;57.20
10419;DHT22;5256;48.728;9.140;2022-08-03T15:57:55;39.60;58.00
10419;DHT22;5256;48.728;9.140;2022-08-03T16:00:21;39.80;57.00
10419;DHT22;5256;48.728;9.140;2022-08-03T16:02:46;40.10;56.20
10419;DHT22;5256;48.728;9.140;2022-08-03T16:05:12;38.80;57.20
10419;DHT22;5256;48.728;9.140;2022-08-03T16:07:37;38.20;57.60
10419;DHT22;5256;48.728;9.140;2022-08-03T16:10:16;38.20;57.70
10419;DHT22;5256;48.728;9.140;2022-08-03T16:12:43;38.20;58.20
10419;DHT22;5256;48.728;9.140;2022-08-03T16:15:09;37.60;58.10
10419;DHT22;5256;48.728;9.140;2022-08-03T16:17:36;36.70;59.40
10419;DHT22;5256;48.728;9.140;2022-08-03T16:20:03;35.80;59.60
10419;DHT22;5256;48.728;9.140;2022-08-03T16:22:29;35.00;61.20
10419;DHT22;5256;48.728;9.140;2022-08-03T16:24:55;34.60;61.60
10419;DHT22;5256;48.728;9.140;2022-08-03T16:27:21;34.10;62.50
10419;DHT22;5256;48.728;9.140;2022-08-03T16:29:47;33.70;63.00